Time;durP1;ratioP1;P1;durP2;ratioP2;P2;SDS_P1;SDS_P2;PMS_P1;PMS_P2;Temp;Humidity;BMP_temperature;BMP_pressure;BME280_temperature;BME280_humidity;BME280_pressure;Samples;Min_cycle;Max_cycle;Signal;HPM_P1;HPM_P2
2023/08/10 00:02:03;;;;;;;4.70;3.90;;;;;;;;;;5000288;28;20046;-73
2023/08/10 00:04:30;;;;;;;4.20;3.80;;;;;;;;;;4999237;28;20045;-72
2023/08/10 00:06:55;;;;;;;4.20;3.47;;;;;;;;;;4999128;28;20045;-73
2023/08/10 00:09:20;;;;;;;4.47;4.03;;;;;;;;;;5006686;28;20384;-73
2023/08/10 00:11:46;;;;;;;3.72;3.40;;;;;;;;;;5002090;28;20056;-72
2023/08/10 00:14:12;;;;;;;7.65;3.60;;;;;;;;;;5002115;28;20144;-73
2023/08/10 00:16:37;;;;;;;4.15;3.70;;;;;;;;;;4999397;28;20041;-73
2023/08/10 00:19:04;;;;;;;4.32;3.65;;;;;;;;;;4998685;28;20069;-73
2023/08/10 00:21:30;;;;;;;4.53;3.90;;;;;;;;;;4998766;28;20053;-73
2023/08/10 00:23:56;;;;;;;4.05;3.65;;;;;;;;;;4998874;28;20046;-73
2023/08/10 00:26:25;;;;;;;4.63;3.90;;;;;;;;;;5000688;28;20091;-73
2023/08/10 00:28:51;;;;;;;6.80;4.30;;;;;;;;;;4986144;28;20131;-72
2023/08/10 00:31:17;;;;;;;5.68;3.90;;;;;;;;;;5001983;28;20057;-73
2023/08/10 00:33:43;;;;;;;5.38;4.20;;;;;;;;;;5004737;28;20041;-73
2023/08/10 00:36:08;;;;;;;4.47;4.07;;;;;;;;;;5002879;28;20046;-73
2023/08/10 00:38:40;;;;;;;5.22;4.47;;;;;;;;;;5008632;28;20057;-73
2023/08/10 00:41:06;;;;;;;5.25;4.30;;;;;;;;;;5003955;28;20054;-73
2023/08/10 00:43:32;;;;;;;4.43;3.92;;;;;;;;;;5001700;28;20124;-73
2023/08/10 00:45:59;;;;;;;4.45;3.90;;;;;;;;;;5003175;28;20049;-73
2023/08/10 00:48:25;;;;;;;5.13;4.45;;;;;;;;;;5005058;28;20042;-73
2023/08/10 00:50:53;;;;;;;4.85;4.38;;;;;;;;;;5003797;28;20077;-73
2023/08/10 00:53:19;;;;;;;5.45;4.40;;;;;;;;;;5001933;28;20038;-73
2023/08/10 00:55:46;;;;;;;4.72;4.32;;;;;;;;;;5005650;28;20065;-73
2023/08/10 00:58:12;;;;;;;6.78;4.40;;;;;;;;;;5002096;28;20970;-73
2023/08/10 01:00:38;;;;;;;5.30;4.55;;;;;;;;;;5003626;28;20045;-73
2023/08/10 01:03:04;;;;;;;5.82;4.38;;;;;;;;;;5005472;28;20945;-73
2023/08/10 01:05:34;;;;;;;5.25;4.45;;;;;;;;;;5006091;28;20049;-73
2023/08/10 01:08:11;;;;;;;5.82;4.57;;;;;;;;;;5004993;28;20046;-74
2023/08/10 01:10:47;;;;;;;4.50;4.10;;;;;;;;;;5008088;28;20042;-73
2023/08/10 01:13:39;;;;;;;6.30;4.55;;;;;;;;;;4999709;28;20053;-73
2023/08/10 01:16:09;;;;;;;4.72;4.22;;;;;;;;;;5004547;28;20475;-73
2023/08/10 01:18:35;;;;;;;4.75;4.25;;;;;;;;;;5010867;28;20061;-73
2023/08/10 01:21:07;;;;;;;5.00;4.43;;;;;;;;;;5001309;28;20108;-73
2023/08/10 01:23:41;;;;;;;107.53;6.38;;;;;;;;;;5004021;28;20111;-73
2023/08/10 01:26:08;;;;;;;53.97;5.80;;;;;;;;;;5004235;28;20137;-73
2023/08/10 01:28:34;;;;;;;108.32;6.93;;;;;;;;;;5001356;28;20093;-73
2023/08/10 01:31:00;;;;;;;124.97;8.77;;;;;;;;;;4998510;28;20061;-73
2023/08/10 01:33:26;;;;;;;41.33;6.50;;;;;;;;;;5003298;28;20053;-73
2023/08/10 01:35:52;;;;;;;20.65;5.10;;;;;;;;;;5012512;28;20419;-73
2023/08/10 01:38:18;;;;;;;47.38;4.65;;;;;;;;;;5006736;28;20041;-73
2023/08/10 01:40:43;;;;;;;7.63;4.53;;;;;;;;;;5007550;28;20064;-73
2023/08/10 01:43:09;;;;;;;22.33;4.82;;;;;;;;;;5006084;28;20057;-73
2023/08/10 01:45:34;;;;;;;107.97;6.15;;;;;;;;;;5001461;28;20053;-73
2023/08/10 01:48:15;;;;;;;72.97;6.70;;;;;;;;;;4984227;28;20068;-73
2023/08/10 01:50:42;;;;;;;178.93;6.93;;;;;;;;;;5002794;28;20046;-73
2023/08/10 01:53:20;;;;;;;26.55;4.75;;;;;;;;;;5004961;28;20415;-73
2023/08/10 01:55:46;;;;;;;10.77;4.22;;;;;;;;;;5025143;28;20045;-73
2023/08/10 01:58:13;;;;;;;131.73;5.88;;;;;;;;;;5003047;28;20049;-73
2023/08/10 02:00:39;;;;;;;11.55;4.68;;;;;;;;;;5002407;28;20064;-73
2023/08/10 02:03:05;;;;;;;154.57;6.70;;;;;;;;;;5001043;28;20069;-73
2023/08/10 02:05:31;;;;;;;74.60;5.82;;;;;;;;;;5004192;28;20483;-73
2023/08/10 02:07:56;;;;;;;7.90;4.55;;;;;;;;;;5001480;28;20050;-73
2023/08/10 02:10:22;;;;;;;71.55;4.80;;;;;;;;;;5005484;28;20041;-73
2023/08/10 02:12:47;;;;;;;13.68;4.57;;;;;;;;;;5002756;28;20054;-73
2023/08/10 02:15:13;;;;;;;45.38;4.55;;;;;;;;;;5012915;28;20399;-72
2023/08/10 02:17:40;;;;;;;67.85;4.43;;;;;;;;;;5004855;28;20057;-73
2023/08/10 02:20:13;;;;;;;12.55;3.85;;;;;;;;;;5000009;28;20864;-73
2023/08/10 02:22:49;;;;;;;4.90;3.55;;;;;;;;;;5022339;28;20045;-73
2023/08/10 02:25:16;;;;;;;60.63;4.10;;;;;;;;;;5004088;28;20414;-73
2023/08/10 02:27:42;;;;;;;10.82;3.60;;;;;;;;;;5002045;28;20050;-73
2023/08/10 02:30:09;;;;;;;34.05;3.65;;;;;;;;;;5004192;28;20050;-73
2023/08/10 02:32:35;;;;;;;15.02;3.80;;;;;;;;;;5000451;28;20057;-73
2023/08/10 02:35:02;;;;;;;15.27;3.40;;;;;;;;;;5012267;28;20038;-73
2023/08/10 02:37:28;;;;;;;54.42;3.80;;;;;;;;;;5003657;28;20042;-73
2023/08/10 02:39:53;;;;;;;3.60;3.25;;;;;;;;;;5000445;28;20053;-72
2023/08/10 02:42:19;;;;;;;21.50;3.35;;;;;;;;;;5000568;28;20050;-73
2023/08/10 02:44:44;;;;;;;18.70;2.90;;;;;;;;;;4994580;28;20053;-73
2023/08/10 02:47:10;;;;;;;8.55;3.13;;;;;;;;;;5005931;28;20095;-73
2023/08/10 02:49:35;;;;;;;3.20;2.90;;;;;;;;;;4991050;28;20156;-72
2023/08/10 02:52:01;;;;;;;10.88;3.08;;;;;;;;;;5011618;28;20160;-73
2023/08/10 02:54:27;;;;;;;17.98;3.10;;;;;;;;;;5013271;28;20042;-73
2023/08/10 02:56:52;;;;;;;12.45;3.05;;;;;;;;;;5008108;28;20050;-72
2023/08/10 02:59:17;;;;;;;22.00;3.38;;;;;;;;;;5004186;28;20151;-73
2023/08/10 03:01:46;;;;;;;3.28;2.97;;;;;;;;;;5005863;28;20052;-73
2023/08/10 03:04:12;;;;;;;3.17;2.90;;;;;;;;;;5000395;28;20585;-74
2023/08/10 03:06:39;;;;;;;3.35;3.05;;;;;;;;;;5002867;28;20048;-73
2023/08/10 03:09:04;;;;;;;3.10;2.90;;;;;;;;;;5003382;28;20141;-73
2023/08/10 03:11:30;;;;;;;7.57;2.58;;;;;;;;;;5004669;28;20057;-72
2023/08/10 03:14:03;;;;;;;2.80;2.40;;;;;;;;;;5039554;27;20407;-73
2023/08/10 03:16:30;;;;;;;2.65;2.45;;;;;;;;;;5022578;28;20053;-73
2023/08/10 03:18:56;;;;;;;2.75;2.55;;;;;;;;;;5024757;28;20470;-74
2023/08/10 03:21:22;;;;;;;2.97;2.65;;;;;;;;;;5011051;28;20041;-74
2023/08/10 03:23:48;;;;;;;3.22;2.92;;;;;;;;;;5002177;28;20069;-74
2023/08/10 03:26:14;;;;;;;3.03;2.78;;;;;;;;;;5008328;28;20046;-74
2023/08/10 03:28:39;;;;;;;3.40;3.10;;;;;;;;;;5033567;28;20684;-74
2023/08/10 03:31:05;;;;;;;3.22;2.90;;;;;;;;;;5023888;28;20601;-74
2023/08/10 03:33:32;;;;;;;3.08;2.78;;;;;;;;;;5028517;28;20797;-74
2023/08/10 03:35:58;;;;;;;3.55;2.97;;;;;;;;;;5021899;28;20045;-74
2023/08/10 03:38:24;;;;;;;4.82;3.00;;;;;;;;;;4997424;28;20052;-74
2023/08/10 03:40:49;;;;;;;5.80;3.20;;;;;;;;;;5022463;28;20037;-73
2023/08/10 03:43:15;;;;;;;3.42;2.92;;;;;;;;;;5018545;28;20050;-73
2023/08/10 03:45:41;;;;;;;4.80;2.80;;;;;;;;;;5006029;28;20064;-74
2023/08/10 03:48:08;;;;;;;3.47;3.17;;;;;;;;;;5007069;28;20037;-74
2023/08/10 03:50:33;;;;;;;8.20;3.22;;;;;;;;;;5021246;28;20056;-74
2023/08/10 03:52:58;;;;;;;3.40;3.10;;;;;;;;;;5017801;28;20152;-74
2023/08/10 03:55:25;;;;;;;5.93;3.30;;;;;;;;;;5025304;28;20050;-74
2023/08/10 03:57:51;;;;;;;3.38;3.13;;;;;;;;;;5024448;28;20053;-74
2023/08/10 04:00:16;;;;;;;3.60;3.05;;;;;;;;;;4990564;28;20048;-72
2023/08/10 04:02:42;;;;;;;3.60;3.30;;;;;;;;;;5003719;28;20051;-72
2023/08/10 04:05:10;;;;;;;3.25;2.95;;;;;;;;;;5023937;28;20512;-72
2023/08/10 04:07:40;;;;;;;3.80;3.00;;;;;;;;;;5003752;28;20050;-72
2023/08/10 04:10:06;;;;;;;2.92;2.72;;;;;;;;;;5006067;28;20212;-72
2023/08/10 04:12:35;;;;;;;5.85;3.10;;;;;;;;;;4998550;28;20045;-72
2023/08/10 04:15:02;;;;;;;4.50;3.22;;;;;;;;;;5000517;28;20061;-72
2023/08/10 04:17:28;;;;;;;3.05;2.72;;;;;;;;;;4979067;28;20112;-72
2023/08/10 04:19:53;;;;;;;4.50;3.63;;;;;;;;;;4995844;28;20050;-71
2023/08/10 04:22:19;;;;;;;4.45;3.40;;;;;;;;;;4994989;28;20112;-71
2023/08/10 04:24:44;;;;;;;4.03;3.30;;;;;;;;;;4988576;28;20050;-75
2023/08/10 04:27:10;;;;;;;3.92;3.33;;;;;;;;;;4984423;28;20042;-72
2023/08/10 04:29:35;;;;;;;6.82;3.92;;;;;;;;;;4996751;28;20049;-72
2023/08/10 04:32:01;;;;;;;4.38;3.92;;;;;;;;;;4992044;28;20081;-71
2023/08/10 04:34:28;;;;;;;4.07;3.67;;;;;;;;;;4990877;28;20050;-72
2023/08/10 04:36:53;;;;;;;3.88;3.33;;;;;;;;;;4988403;28;20050;-73
2023/08/10 04:39:19;;;;;;;3.88;3.47;;;;;;;;;;4984938;28;20466;-72
2023/08/10 04:41:44;;;;;;;3.63;3.20;;;;;;;;;;4990780;28;20056;-72
2023/08/10 04:44:09;;;;;;;3.67;3.08;;;;;;;;;;4989729;28;20057;-72
2023/08/10 04:46:35;;;;;;;3.00;2.80;;;;;;;;;;4989125;28;20065;-72
2023/08/10 04:49:00;;;;;;;6.15;3.17;;;;;;;;;;4985986;28;20117;-72
2023/08/10 04:51:26;;;;;;;5.40;3.50;;;;;;;;;;4984211;28;20475;-72
2023/08/10 04:53:51;;;;;;;4.13;3.70;;;;;;;;;;4986800;28;20073;-73
2023/08/10 04:56:17;;;;;;;4.00;3.60;;;;;;;;;;4986094;28;20082;-72
2023/08/10 04:58:42;;;;;;;5.15;4.07;;;;;;;;;;4971432;28;20103;-72
2023/08/10 05:01:09;;;;;;;6.85;4.70;;;;;;;;;;4986140;28;20077;-72
2023/08/10 05:03:35;;;;;;;4.85;4.35;;;;;;;;;;5004704;28;20080;-72
2023/08/10 05:06:02;;;;;;;5.80;4.80;;;;;;;;;;5012501;28;20042;-72
2023/08/10 05:08:27;;;;;;;5.20;4.47;;;;;;;;;;5014586;28;20038;-72
2023/08/10 05:10:53;;;;;;;6.35;5.05;;;;;;;;;;5009291;28;20105;-70
2023/08/10 05:13:19;;;;;;;8.05;6.05;;;;;;;;;;5010687;28;20075;-72
2023/08/10 05:15:44;;;;;;;8.13;6.15;;;;;;;;;;5013433;28;20054;-73
2023/08/10 05:18:10;;;;;;;7.25;5.63;;;;;;;;;;4995490;28;20053;-72
2023/08/10 05:20:37;;;;;;;14.23;6.20;;;;;;;;;;5014694;28;20050;-72
2023/08/10 05:23:03;;;;;;;10.43;6.88;;;;;;;;;;5015523;28;20120;-72
2023/08/10 05:25:28;;;;;;;8.88;6.88;;;;;;;;;;5014525;28;20156;-72
2023/08/10 05:27:54;;;;;;;8.77;5.95;;;;;;;;;;5009573;28;20053;-73
2023/08/10 05:30:19;;;;;;;6.78;5.47;;;;;;;;;;5012431;28;20054;-71
2023/08/10 05:32:45;;;;;;;5.80;4.78;;;;;;;;;;5011621;28;20083;-72
2023/08/10 05:35:11;;;;;;;8.75;5.68;;;;;;;;;;5008827;28;20046;-72
2023/08/10 05:37:38;;;;;;;6.90;5.10;;;;;;;;;;5011063;28;20061;-72
2023/08/10 05:40:09;;;;;;;7.80;5.70;;;;;;;;;;5010213;28;20137;-71
2023/08/10 05:42:35;;;;;;;5.70;4.97;;;;;;;;;;5011141;28;20050;-71
2023/08/10 05:45:00;;;;;;;6.55;5.50;;;;;;;;;;5011538;28;20100;-71
2023/08/10 05:47:26;;;;;;;8.30;5.43;;;;;;;;;;5004783;28;20046;-71
2023/08/10 05:49:51;;;;;;;6.50;4.97;;;;;;;;;;5006379;28;20050;-71
2023/08/10 05:52:17;;;;;;;6.55;5.07;;;;;;;;;;5006231;28;20100;-71
2023/08/10 05:54:42;;;;;;;7.15;4.95;;;;;;;;;;5010571;28;20060;-71
2023/08/10 05:57:07;;;;;;;6.78;5.25;;;;;;;;;;5012165;28;20045;-71
2023/08/10 05:59:33;;;;;;;6.40;4.35;;;;;;;;;;5012144;28;20048;-71
2023/08/10 06:01:58;;;;;;;6.30;4.82;;;;;;;;;;5003185;28;20042;-71
2023/08/10 06:04:24;;;;;;;7.63;4.40;;;;;;;;;;5001242;28;20041;-71
2023/08/10 06:06:49;;;;;;;5.38;4.40;;;;;;;;;;5001377;28;20110;-71
2023/08/10 06:09:16;;;;;;;4.57;3.63;;;;;;;;;;5001369;28;20056;-71
2023/08/10 06:11:42;;;;;;;7.55;3.80;;;;;;;;;;5011344;28;20136;-72
2023/08/10 06:14:07;;;;;;;4.03;3.45;;;;;;;;;;5011079;28;20406;-71
2023/08/10 06:16:33;;;;;;;4.43;3.95;;;;;;;;;;5005912;28;20620;-71
2023/08/10 06:18:59;;;;;;;3.65;3.35;;;;;;;;;;4974210;28;20054;-73
2023/08/10 06:21:25;;;;;;;4.20;3.28;;;;;;;;;;4987864;28;20049;-70
2023/08/10 06:23:50;;;;;;;4.50;4.10;;;;;;;;;;4985030;28;20046;-74
2023/08/10 06:26:16;;;;;;;3.67;3.35;;;;;;;;;;4992879;28;20074;-74
2023/08/10 06:28:42;;;;;;;3.35;3.00;;;;;;;;;;5007566;28;20054;-72
2023/08/10 06:31:10;;;;;;;3.67;2.92;;;;;;;;;;5006844;28;20141;-72
2023/08/10 06:33:36;;;;;;;3.10;2.80;;;;;;;;;;4980583;28;20050;-73
2023/08/10 06:36:06;;;;;;;3.83;2.97;;;;;;;;;;4984703;28;20042;-73
2023/08/10 06:38:31;;;;;;;3.97;3.00;;;;;;;;;;4986958;28;20515;-72
2023/08/10 06:40:57;;;;;;;3.90;3.15;;;;;;;;;;4984060;28;20054;-72
2023/08/10 06:43:22;;;;;;;3.05;2.80;;;;;;;;;;4978403;28;20058;-71
2023/08/10 06:45:51;;;;;;;3.78;3.17;;;;;;;;;;4980624;28;20503;-71
2023/08/10 06:48:17;;;;;;;4.05;2.95;;;;;;;;;;4980792;28;20581;-72
2023/08/10 06:50:43;;;;;;;4.70;3.05;;;;;;;;;;4978883;28;20039;-75
2023/08/10 06:53:08;;;;;;;3.38;2.78;;;;;;;;;;4984385;28;20451;-72
2023/08/10 06:55:34;;;;;;;2.90;2.60;;;;;;;;;;4990429;28;20057;-72
2023/08/10 06:57:59;;;;;;;2.20;2.00;;;;;;;;;;4991680;28;20130;-72
2023/08/10 07:00:25;;;;;;;2.80;2.03;;;;;;;;;;4984622;28;20061;-71
2023/08/10 07:02:53;;;;;;;2.65;2.40;;;;;;;;;;4989544;28;20404;-71
2023/08/10 07:05:25;;;;;;;2.83;2.30;;;;;;;;;;4984857;28;20060;-71
2023/08/10 07:07:52;;;;;;;3.35;2.53;;;;;;;;;;4982115;28;20076;-71
2023/08/10 07:10:18;;;;;;;3.38;2.13;;;;;;;;;;4983077;28;20065;-72
2023/08/10 07:12:44;;;;;;;2.40;1.95;;;;;;;;;;4987838;28;20046;-71
2023/08/10 07:15:10;;;;;;;3.00;2.17;;;;;;;;;;4989985;28;20046;-75
2023/08/10 07:17:35;;;;;;;1.60;1.50;;;;;;;;;;4993425;28;20073;-74
2023/08/10 07:20:03;;;;;;;1.55;1.45;;;;;;;;;;4985026;28;20141;-71
2023/08/10 07:22:29;;;;;;;3.15;1.73;;;;;;;;;;4984455;28;20042;-71
2023/08/10 07:24:54;;;;;;;1.58;1.40;;;;;;;;;;4983016;28;20050;-72
2023/08/10 07:27:20;;;;;;;2.50;1.40;;;;;;;;;;4985464;28;20149;-74
2023/08/10 07:29:46;;;;;;;1.10;1.10;;;;;;;;;;4981590;28;20096;-73
2023/08/10 07:32:14;;;;;;;1.40;1.30;;;;;;;;;;4983293;28;20057;-73
2023/08/10 07:34:39;;;;;;;2.20;1.10;;;;;;;;;;4983779;28;20053;-73
2023/08/10 07:37:05;;;;;;;2.70;1.45;;;;;;;;;;4982450;28;20046;-73
2023/08/10 07:39:30;;;;;;;2.47;1.30;;;;;;;;;;4982366;28;20058;-74
2023/08/10 07:41:56;;;;;;;1.67;1.13;;;;;;;;;;4982809;28;20074;-70
2023/08/10 07:44:21;;;;;;;1.45;1.00;;;;;;;;;;4982407;28;20129;-70
2023/08/10 07:46:48;;;;;;;5.88;1.17;;;;;;;;;;4986591;28;20038;-73
2023/08/10 07:49:17;;;;;;;0.70;0.70;;;;;;;;;;4977556;28;20046;-72
2023/08/10 07:51:46;;;;;;;2.13;1.05;;;;;;;;;;4984405;28;20053;-74
2023/08/10 07:54:12;;;;;;;3.92;1.02;;;;;;;;;;4977218;28;20427;-75
2023/08/10 07:56:38;;;;;;;1.05;0.90;;;;;;;;;;4979381;28;20428;-72
2023/08/10 07:59:03;;;;;;;1.48;1.10;;;;;;;;;;4987184;28;20054;-72
2023/08/10 08:01:29;;;;;;;1.33;1.00;;;;;;;;;;4992184;28;20356;-75
2023/08/10 08:03:54;;;;;;;1.45;1.23;;;;;;;;;;4994938;28;20117;-74
2023/08/10 08:06:19;;;;;;;2.17;1.20;;;;;;;;;;4987786;28;20491;-72
2023/08/10 08:08:45;;;;;;;1.55;1.00;;;;;;;;;;4990948;28;20038;-73
2023/08/10 08:11:10;;;;;;;1.42;1.08;;;;;;;;;;4987018;28;20419;-74
2023/08/10 08:13:36;;;;;;;1.48;0.90;;;;;;;;;;4990086;28;20140;-75
2023/08/10 08:16:01;;;;;;;1.42;1.10;;;;;;;;;;4977086;28;20052;-72
2023/08/10 08:18:43;;;;;;;1.30;0.90;;;;;;;;;;4992966;28;20045;-74
2023/08/10 08:21:11;;;;;;;0.70;0.70;;;;;;;;;;4983269;28;20050;-71
2023/08/10 08:23:36;;;;;;;1.25;1.15;;;;;;;;;;4986954;28;20133;-72
2023/08/10 08:26:03;;;;;;;0.82;0.82;;;;;;;;;;4989927;28;20038;-74
2023/08/10 08:28:28;;;;;;;0.90;0.90;;;;;;;;;;4989750;28;20507;-74
2023/08/10 08:30:54;;;;;;;1.17;0.90;;;;;;;;;;4974463;28;20050;-76
2023/08/10 08:33:19;;;;;;;2.05;1.05;;;;;;;;;;4986451;28;20038;-74
2023/08/10 08:35:46;;;;;;;1.40;1.00;;;;;;;;;;4991181;28;21038;-73
2023/08/10 08:38:15;;;;;;;0.93;0.90;;;;;;;;;;4989031;28;20038;-73
2023/08/10 08:40:42;;;;;;;1.08;0.80;;;;;;;;;;5005208;28;20042;-75
2023/08/10 08:43:09;;;;;;;2.03;0.85;;;;;;;;;;4988141;28;20097;-74
2023/08/10 08:45:35;;;;;;;2.17;1.00;;;;;;;;;;4972070;28;20518;-75
2023/08/10 08:48:03;;;;;;;2.15;1.02;;;;;;;;;;4984997;28;20038;-74
2023/08/10 08:50:29;;;;;;;1.20;0.80;;;;;;;;;;4980453;28;20496;-74
2023/08/10 08:52:55;;;;;;;1.08;0.98;;;;;;;;;;4989385;28;20049;-73
2023/08/10 08:55:20;;;;;;;1.52;0.90;;;;;;;;;;4994235;28;20050;-73
2023/08/10 08:57:47;;;;;;;1.30;0.85;;;;;;;;;;4990497;28;20060;-75
2023/08/10 09:00:13;;;;;;;2.85;0.93;;;;;;;;;;4984722;28;20042;-75
2023/08/10 09:02:40;;;;;;;0.90;0.70;;;;;;;;;;4990557;28;20045;-75
2023/08/10 09:05:08;;;;;;;0.95;0.95;;;;;;;;;;4980436;28;20060;-76
2023/08/10 09:07:34;;;;;;;3.78;1.00;;;;;;;;;;4964544;28;20111;-75
2023/08/10 09:09:59;;;;;;;2.00;0.90;;;;;;;;;;4986706;28;20058;-76
2023/08/10 09:12:32;;;;;;;1.25;1.00;;;;;;;;;;4991443;28;20046;-76
2023/08/10 09:15:04;;;;;;;1.17;0.93;;;;;;;;;;4993724;28;20133;-76
2023/08/10 09:17:30;;;;;;;2.08;0.82;;;;;;;;;;4987543;28;20415;-75
2023/08/10 09:19:56;;;;;;;1.25;1.10;;;;;;;;;;4974209;28;20605;-75
2023/08/10 09:22:39;;;;;;;1.00;0.90;;;;;;;;;;4985181;28;20038;-76
2023/08/10 09:25:06;;;;;;;0.85;0.82;;;;;;;;;;4988862;28;20074;-78
2023/08/10 09:27:33;;;;;;;0.90;0.90;;;;;;;;;;4981905;28;20060;-75
2023/08/10 09:30:04;;;;;;;1.30;1.10;;;;;;;;;;4988754;28;20046;-75
2023/08/10 09:32:30;;;;;;;3.50;1.25;;;;;;;;;;4980290;28;20129;-72
2023/08/10 09:34:55;;;;;;;1.02;0.80;;;;;;;;;;4981272;28;20141;-73
2023/08/10 09:37:23;;;;;;;2.47;0.85;;;;;;;;;;4979656;28;20178;-72
2023/08/10 09:40:01;;;;;;;5.10;1.00;;;;;;;;;;4979195;28;20145;-77
2023/08/10 09:42:31;;;;;;;1.58;1.02;;;;;;;;;;4985694;28;20038;-73
2023/08/10 09:44:58;;;;;;;1.42;1.00;;;;;;;;;;4991397;28;20045;-72
2023/08/10 09:47:24;;;;;;;1.17;1.08;;;;;;;;;;4986761;28;20078;-73
2023/08/10 09:49:56;;;;;;;0.80;0.80;;;;;;;;;;4983375;28;20130;-75
2023/08/10 09:52:23;;;;;;;1.13;0.90;;;;;;;;;;4982822;28;20038;-76
2023/08/10 09:54:50;;;;;;;2.22;0.90;;;;;;;;;;4979246;28;20113;-75
2023/08/10 09:57:17;;;;;;;0.98;0.85;;;;;;;;;;4985149;28;20890;-74
2023/08/10 09:59:43;;;;;;;0.90;0.90;;;;;;;;;;4983095;28;20574;-75
2023/08/10 10:02:10;;;;;;;0.90;0.90;;;;;;;;;;4984420;28;20047;-75
2023/08/10 10:04:36;;;;;;;1.42;1.02;;;;;;;;;;4985798;28;20042;-76
2023/08/10 10:07:02;;;;;;;1.10;1.00;;;;;;;;;;4979620;28;20076;-73
2023/08/10 10:09:29;;;;;;;1.80;1.05;;;;;;;;;;4982028;28;20038;-74
2023/08/10 10:11:58;;;;;;;0.70;0.70;;;;;;;;;;4968711;28;20134;-73
2023/08/10 10:14:24;;;;;;;3.13;1.00;;;;;;;;;;4982691;28;20473;-74
2023/08/10 10:16:51;;;;;;;1.20;0.98;;;;;;;;;;5002384;28;20911;-75
2023/08/10 10:19:17;;;;;;;0.95;0.95;;;;;;;;;;4995950;28;20410;-71
2023/08/10 10:21:43;;;;;;;1.40;1.10;;;;;;;;;;5003758;28;20137;-72
2023/08/10 10:24:17;;;;;;;1.42;1.00;;;;;;;;;;5006161;28;20061;-75
2023/08/10 10:27:05;;;;;;;1.55;0.98;;;;;;;;;;5007521;28;20053;-74
2023/08/10 10:29:51;;;;;;;1.00;0.80;;;;;;;;;;4996587;28;20093;-73
2023/08/10 10:32:19;;;;;;;4.38;1.20;;;;;;;;;;4985828;28;20589;-73
2023/08/10 10:34:46;;;;;;;2.58;0.85;;;;;;;;;;5009285;28;20058;-73
2023/08/10 10:37:16;;;;;;;1.10;1.00;;;;;;;;;;5000173;28;20743;-73
2023/08/10 10:39:44;;;;;;;0.90;0.90;;;;;;;;;;5016567;28;20058;-72
2023/08/10 10:42:11;;;;;;;1.70;0.90;;;;;;;;;;5001635;28;20052;-73
2023/08/10 10:44:59;;;;;;;1.50;0.80;;;;;;;;;;5000949;28;20062;-72
2023/08/10 10:47:41;;;;;;;1.08;0.88;;;;;;;;;;4996756;28;20045;-74
2023/08/10 10:50:39;;;;;;;1.23;1.00;;;;;;;;;;5015789;28;20049;-73
2023/08/10 10:53:07;;;;;;;0.80;0.80;;;;;;;;;;4995915;28;20049;-72
2023/08/10 10:55:41;;;;;;;1.20;0.75;;;;;;;;;;5008451;28;20092;-73
2023/08/10 10:58:09;;;;;;;2.33;1.00;;;;;;;;;;5000943;28;20511;-75
2023/08/10 11:00:37;;;;;;;1.27;0.95;;;;;;;;;;5022501;28;20041;-74
2023/08/10 11:03:04;;;;;;;1.00;1.00;;;;;;;;;;5009651;28;20068;-73
2023/08/10 11:05:29;;;;;;;1.05;1.00;;;;;;;;;;5004269;28;20585;-73
2023/08/10 11:08:03;;;;;;;0.70;0.70;;;;;;;;;;4996533;28;20041;-74
2023/08/10 11:10:31;;;;;;;1.55;1.00;;;;;;;;;;4985536;28;21011;-74
2023/08/10 11:12:57;;;;;;;1.30;1.20;;;;;;;;;;5004879;28;20049;-74
2023/08/10 11:15:22;;;;;;;1.13;0.90;;;;;;;;;;5002660;28;20546;-75
2023/08/10 11:17:50;;;;;;;1.20;1.10;;;;;;;;;;5004507;28;20088;-77
2023/08/10 11:20:17;;;;;;;3.53;1.25;;;;;;;;;;5002120;28;20061;-75
2023/08/10 11:22:42;;;;;;;0.90;0.90;;;;;;;;;;4994036;28;20044;-74
2023/08/10 11:25:10;;;;;;;1.83;1.05;;;;;;;;;;5007317;28;20053;-75
2023/08/10 11:27:37;;;;;;;0.90;0.90;;;;;;;;;;4999579;28;20180;-74
2023/08/10 11:30:04;;;;;;;1.00;1.00;;;;;;;;;;5000982;28;20049;-74
2023/08/10 11:32:30;;;;;;;1.02;0.93;;;;;;;;;;4992441;28;20123;-73
2023/08/10 11:34:57;;;;;;;1.10;1.00;;;;;;;;;;5009905;28;20141;-78
2023/08/10 11:37:34;;;;;;;1.23;1.10;;;;;;;;;;5010197;28;20119;-74
2023/08/10 11:40:16;;;;;;;1.98;1.05;;;;;;;;;;5003294;28;20046;-75
2023/08/10 11:42:52;;;;;;;1.02;0.93;;;;;;;;;;5007735;28;21028;-77
2023/08/10 11:45:23;;;;;;;1.02;0.80;;;;;;;;;;5005462;28;20117;-76
2023/08/10 11:47:51;;;;;;;1.23;1.13;;;;;;;;;;5003892;28;20052;-77
2023/08/10 11:50:19;;;;;;;1.27;0.90;;;;;;;;;;5009385;28;20077;-74
2023/08/10 11:52:45;;;;;;;1.17;0.90;;;;;;;;;;5006891;28;20046;-75
2023/08/10 11:55:13;;;;;;;0.63;0.63;;;;;;;;;;5004314;28;20045;-73
2023/08/10 11:57:48;;;;;;;1.48;1.05;;;;;;;;;;5002715;28;20576;-74
2023/08/10 12:00:30;;;;;;;1.48;1.15;;;;;;;;;;5002384;28;20042;-72
2023/08/10 12:03:04;;;;;;;1.10;1.00;;;;;;;;;;5003618;28;20518;-73
2023/08/10 12:05:36;;;;;;;1.17;1.08;;;;;;;;;;5008964;28;20120;-75
2023/08/10 12:08:07;;;;;;;1.80;1.15;;;;;;;;;;5005170;28;20042;-73
2023/08/10 12:10:37;;;;;;;1.48;1.10;;;;;;;;;;5003902;28;20081;-73
2023/08/10 12:13:04;;;;;;;4.07;1.10;;;;;;;;;;5003560;28;20049;-76
2023/08/10 12:15:31;;;;;;;2.38;1.08;;;;;;;;;;5000605;28;20136;-76
2023/08/10 12:17:57;;;;;;;1.33;0.90;;;;;;;;;;5006932;28;20045;-74
2023/08/10 12:20:22;;;;;;;2.15;1.35;;;;;;;;;;5004812;28;20049;-73
2023/08/10 12:22:48;;;;;;;0.93;0.93;;;;;;;;;;5005917;28;20065;-72
2023/08/10 12:25:13;;;;;;;1.52;0.90;;;;;;;;;;5001174;28;20744;-74
2023/08/10 12:27:39;;;;;;;1.13;1.00;;;;;;;;;;5003214;28;20058;-74
2023/08/10 12:30:05;;;;;;;4.00;1.20;;;;;;;;;;5002997;28;20053;-73
2023/08/10 12:32:30;;;;;;;1.25;1.13;;;;;;;;;;5008986;28;20033;-74
2023/08/10 12:34:58;;;;;;;3.22;0.93;;;;;;;;;;5005594;28;20052;-74
2023/08/10 12:37:25;;;;;;;0.98;0.93;;;;;;;;;;5006520;28;20046;-73
2023/08/10 12:39:50;;;;;;;1.40;1.10;;;;;;;;;;5007206;28;20057;-74
2023/08/10 12:42:15;;;;;;;1.33;1.23;;;;;;;;;;5003273;28;20065;-74
2023/08/10 12:44:41;;;;;;;0.80;0.80;;;;;;;;;;5002786;28;20053;-73
2023/08/10 12:47:06;;;;;;;1.35;1.10;;;;;;;;;;5002450;28;20343;-73
2023/08/10 12:49:32;;;;;;;1.02;0.93;;;;;;;;;;5006577;28;20121;-74
2023/08/10 12:51:57;;;;;;;0.95;0.95;;;;;;;;;;5006791;28;20573;-73
2023/08/10 12:54:23;;;;;;;0.88;0.88;;;;;;;;;;5009199;28;20034;-74
2023/08/10 12:56:48;;;;;;;1.30;1.05;;;;;;;;;;5014276;28;20052;-72
2023/08/10 12:59:13;;;;;;;1.10;0.98;;;;;;;;;;5003663;28;20116;-75
2023/08/10 13:01:39;;;;;;;1.85;1.00;;;;;;;;;;5011656;28;20081;-73
2023/08/10 13:04:04;;;;;;;1.02;0.90;;;;;;;;;;5010341;28;20056;-72
2023/08/10 13:06:30;;;;;;;1.00;0.90;;;;;;;;;;5008743;28;20077;-73
2023/08/10 13:08:57;;;;;;;1.50;0.80;;;;;;;;;;5007958;28;20049;-74
2023/08/10 13:11:23;;;;;;;1.38;1.10;;;;;;;;;;5001982;28;20045;-72
2023/08/10 13:13:48;;;;;;;1.25;1.00;;;;;;;;;;5014314;28;20054;-73
2023/08/10 13:16:13;;;;;;;0.95;0.93;;;;;;;;;;5009172;28;20052;-75
2023/08/10 13:18:39;;;;;;;1.63;1.30;;;;;;;;;;5004168;28;20042;-75
2023/08/10 13:21:04;;;;;;;1.23;1.05;;;;;;;;;;5004181;28;20412;-74
2023/08/10 13:23:30;;;;;;;1.20;1.10;;;;;;;;;;5007011;28;20439;-73
2023/08/10 13:25:56;;;;;;;1.25;1.00;;;;;;;;;;5010986;28;20046;-74
2023/08/10 13:28:21;;;;;;;2.88;0.98;;;;;;;;;;5009207;28;20517;-74
2023/08/10 13:30:46;;;;;;;2.05;1.17;;;;;;;;;;5011381;28;20045;-74
2023/08/10 13:33:12;;;;;;;0.90;0.90;;;;;;;;;;5006011;28;20045;-71
2023/08/10 13:35:37;;;;;;;2.70;1.05;;;;;;;;;;5010950;28;20110;-73
2023/08/10 13:38:03;;;;;;;1.38;1.10;;;;;;;;;;4999684;28;20076;-73
2023/08/10 13:40:28;;;;;;;1.63;1.17;;;;;;;;;;4997239;28;20517;-75
2023/08/10 13:42:54;;;;;;;2.83;1.30;;;;;;;;;;5001624;28;20056;-75
2023/08/10 13:45:19;;;;;;;1.20;1.10;;;;;;;;;;5008500;28;20050;-75
2023/08/10 13:47:44;;;;;;;1.75;1.63;;;;;;;;;;4995436;28;20049;-74
2023/08/10 13:50:10;;;;;;;1.58;1.15;;;;;;;;;;5002286;28;20050;-73
2023/08/10 13:52:35;;;;;;;1.58;1.20;;;;;;;;;;5007866;28;20038;-73
2023/08/10 13:55:03;;;;;;;1.50;1.10;;;;;;;;;;5004278;28;20578;-74
2023/08/10 13:57:29;;;;;;;1.17;1.08;;;;;;;;;;5008504;28;20076;-73
2023/08/10 13:59:54;;;;;;;5.75;1.00;;;;;;;;;;5002362;28;20141;-72
2023/08/10 14:02:20;;;;;;;1.50;1.20;;;;;;;;;;5004272;28;20041;-73
2023/08/10 14:04:46;;;;;;;2.05;1.00;;;;;;;;;;5003293;28;20742;-73
2023/08/10 14:07:12;;;;;;;1.33;1.23;;;;;;;;;;5007828;28;20151;-76
2023/08/10 14:09:37;;;;;;;3.60;1.20;;;;;;;;;;5006288;28;20103;-72
2023/08/10 14:12:03;;;;;;;7.10;1.30;;;;;;;;;;5001054;28;20070;-73
2023/08/10 14:14:29;;;;;;;1.20;1.10;;;;;;;;;;5006361;28;20121;-73
2023/08/10 14:16:55;;;;;;;1.45;1.00;;;;;;;;;;5007637;28;20050;-74
2023/08/10 14:19:21;;;;;;;2.40;1.13;;;;;;;;;;5010025;28;20052;-74
2023/08/10 14:21:47;;;;;;;1.30;1.20;;;;;;;;;;5007337;28;20050;-73
2023/08/10 14:24:13;;;;;;;1.30;1.00;;;;;;;;;;4998428;28;20052;-74
2023/08/10 14:26:38;;;;;;;1.67;1.15;;;;;;;;;;4999387;28;20135;-72
2023/08/10 14:29:04;;;;;;;3.95;1.33;;;;;;;;;;5000703;28;20507;-77
2023/08/10 14:31:29;;;;;;;1.00;1.00;;;;;;;;;;5000150;28;20045;-75
2023/08/10 14:33:55;;;;;;;1.15;0.95;;;;;;;;;;5007311;28;20148;-75
2023/08/10 14:36:20;;;;;;;1.30;1.20;;;;;;;;;;5001037;28;20049;-74
2023/08/10 14:38:45;;;;;;;2.58;1.50;;;;;;;;;;5003305;28;20042;-73
2023/08/10 14:41:12;;;;;;;1.00;0.90;;;;;;;;;;5005142;28;20426;-71